ADDS METAR Data INFO
IDs: Format: Raw Decoded Include TAF

Data at: 0216 UTC 18 Jan 2018

KHSI 180153Z AUTO 21008KT 10SM CLR M03/M11 A3030 RMK AO2 SLP295 T10281106
KHSI 180053Z AUTO 21008KT 10SM CLR M02/M11 A3031 RMK AO2 SLP298 T10221106
KHSI 172353Z AUTO 21007KT 10SM CLR M02/M11 A3031 RMK AO2 SLP298 T10171106 11006 21061 58006
KHSI 172253Z AUTO 20007KT 10SM CLR M01/M11 A3032 RMK AO2 SLP300 T10061106
KHSI 172153Z AUTO 20009KT 10SM CLR M01/M11 A3033 RMK AO2 SLP303 T10061106
KHSI 172053Z AUTO 21010KT 10SM CLR M02/M11 A3033 RMK AO2 SLP305 T10171111 56028
KHSI 171953Z AUTO 20011KT 10SM CLR M03/M12 A3035 RMK AO2 SLP312 T10281122
KHSI 171853Z AUTO 21012G18KT 10SM CLR M04/M13 A3038 RMK AO2 SLP324 T10391133
KHSI 171753Z AUTO 22011G18KT 10SM CLR M06/M14 A3042 RMK AO2 SLP339 T10611144 11061 21144 58002
KHSI 171653Z AUTO 22010G16KT 10SM CLR M08/M16 A3044 RMK AO2 SLP350 T10781156
KHSI 171553Z AUTO 21009KT 10SM CLR M11/M17 A3044 RMK AO2 SLP350 T11061172
KHSI 171453Z AUTO 21010KT 10SM CLR M13/M18 A3043 RMK AO2 SLP349 T11331183 55008
KHSI 171353Z AUTO 22009KT 10SM CLR M14/M18 A3043 RMK AO2 SLP349 T11441183
KHSI 171253Z AUTO 21010KT 10SM CLR M14/M18 A3043 RMK AO2 SLP349 T11391183
KHSI 171153Z AUTO 20008KT 10SM CLR M14/M18 A3045 RMK AO2 SLP357 T11441183 11144 21161 58015
KHSI 171053Z AUTO 20008KT 10SM CLR M14/M18 A3047 RMK AO2 SLP362 T11441183
KHSI 170953Z AUTO 20007KT 10SM CLR M16/M19 A3049 RMK AO2 SLP368 T11561189
KHSI 170853Z AUTO 21006KT 10SM CLR M16/M19 A3050 RMK AO2 SLP373 T11561189 56013
KHSI 170753Z AUTO 20006KT 10SM CLR M15/M19 A3050 RMK AO2 SLP374 T11501189
KHSI 170653Z AUTO 20008KT 10SM CLR M16/M19 A3051 RMK AO2 SLP380 T11561189
KHSI 170553Z AUTO 19005KT 10SM CLR M16/M19 A3054 RMK AO2 SLP390 T11561189 11128 21161 411111194 58014
KHSI 170453Z AUTO 19006KT 10SM CLR M16/M19 A3056 RMK AO2 SLP398 T11561189
KHSI 170353Z AUTO 18007KT 10SM CLR M16/M19 A3057 RMK AO2 SLP401 T11561189
KHSI 170253Z AUTO 19005KT 10SM CLR M14/M18 A3058 RMK AO2 SLP405 T11441183 56010
KHSI 170153Z AUTO 17003KT 10SM CLR M14/M18 A3059 RMK AO2 SLP409 T11441183
KHSI 170053Z AUTO 21004KT 10SM CLR M13/M18 A3060 RMK AO2 SLP411 T11331178
KHSI 162353Z AUTO 24003KT 10SM CLR M13/M17 A3061 RMK AO2 SLP417 T11281172 11111 21150 58014
KHSI 162253Z AUTO 25004KT 10SM CLR M12/M17 A3064 RMK AO2 SLP423 T11171172
KHSI 162153Z AUTO 31006KT 10SM CLR M11/M17 A3066 RMK AO2 SLP430 T11111167
KHSI 162053Z AUTO 32006KT 10SM CLR M12/M17 A3066 RMK AO2 SLP430 T11171172 56023
KHSI 161953Z AUTO 32005KT 10SM CLR M13/M18 A3067 RMK AO2 SLP435 T11331178
KHSI 161853Z AUTO 31008KT 10SM CLR M14/M19 A3070 RMK AO2 SLP447 T11441189
KHSI 161753Z AUTO 34010KT 10SM CLR M15/M19 A3073 RMK AO2 SLP456 T11501189 11150 21194 50002
KHSI 161653Z AUTO 33012KT 10SM CLR M17/M20 A3074 RMK AO2 SLP461 T11671200
KHSI 161609Z AUTO 35012KT 10SM SCT011 M17/M20 A3073 RMK AO2 T11671200
KHSI 161553Z AUTO 34013KT 8SM BKN011 M17/M20 A3073 RMK AO2 SLP458 T11671200
KHSI 161453Z AUTO 35017KT 8SM OVC012 M17/M20 A3072 RMK AO2 SLP456 T11721200 53004